createdAt,value
2018-03-19T00:00:54.734Z,14.13
2018-03-19T00:03:22.298Z,13.25
2018-03-19T00:05:49.840Z,14.55
2018-03-19T00:08:17.388Z,14.18
2018-03-19T00:10:45.694Z,15.65
2018-03-19T00:13:13.257Z,14.90
2018-03-19T00:15:40.826Z,13.90
2018-03-19T00:18:08.374Z,14.07
2018-03-19T00:20:35.949Z,15.27
2018-03-19T00:23:03.509Z,14.70
2018-03-19T00:25:31.058Z,14.93
2018-03-19T00:27:58.623Z,16.20
2018-03-19T00:30:26.168Z,15.18
2018-03-19T00:32:53.734Z,18.23
2018-03-19T00:35:21.438Z,17.40
2018-03-19T00:37:48.913Z,18.37
2018-03-19T00:40:17.222Z,17.70
2018-03-19T00:42:44.776Z,16.80
2018-03-19T00:45:12.350Z,15.30
2018-03-19T00:47:39.877Z,16.48
2018-03-19T00:50:08.192Z,16.75
2018-03-19T00:52:35.728Z,15.13
2018-03-19T00:55:03.285Z,15.85
2018-03-19T00:57:31.598Z,14.70
2018-03-19T00:59:59.164Z,16.77
2018-03-19T01:02:26.706Z,15.13
2018-03-19T01:04:54.285Z,18.83
2018-03-19T01:07:21.824Z,16.37
2018-03-19T01:09:49.377Z,17.15
2018-03-19T01:12:16.950Z,14.75
2018-03-19T01:14:44.484Z,15.35
2018-03-19T01:17:12.832Z,14.85
2018-03-19T01:19:40.372Z,15.85
2018-03-19T01:22:08.720Z,15.18
2018-03-19T01:24:36.268Z,15.07
2018-03-19T01:27:03.823Z,16.37
2018-03-19T01:29:31.372Z,15.25
2018-03-19T01:31:58.948Z,14.13
2018-03-19T01:34:26.491Z,15.45
2018-03-19T01:36:54.060Z,16.25
2018-03-19T01:39:21.605Z,15.23
2018-03-19T01:41:49.144Z,16.37
2018-03-19T01:44:16.704Z,15.25
2018-03-19T01:46:44.243Z,13.00
2018-03-19T01:49:12.560Z,15.45
2018-03-19T01:51:40.162Z,15.90
2018-03-19T01:54:07.739Z,14.77
2018-03-19T01:56:36.059Z,15.82
2018-03-19T01:59:03.623Z,14.80
2018-03-19T02:01:31.425Z,16.67
2018-03-19T02:03:58.973Z,15.48
2018-03-19T02:06:26.524Z,15.55
2018-03-19T02:08:54.068Z,14.85
2018-03-19T02:11:21.632Z,16.40
2018-03-19T02:13:49.187Z,15.68
2018-03-19T02:16:16.727Z,15.85
2018-03-19T02:18:44.291Z,15.68
2018-03-19T02:21:11.895Z,15.50
2018-03-19T02:23:39.449Z,16.42
2018-03-19T02:26:07.041Z,15.50
2018-03-19T02:28:35.361Z,15.57
2018-03-19T02:31:02.923Z,16.05
2018-03-19T02:33:30.478Z,15.73
2018-03-19T02:35:58.039Z,14.80
2018-03-19T02:38:25.580Z,14.75
2018-03-19T02:40:53.160Z,15.15
2018-03-19T02:43:20.707Z,14.80
2018-03-19T02:45:48.248Z,16.00
2018-03-19T02:48:16.572Z,16.80
2018-03-19T02:50:44.121Z,14.95
2018-03-19T02:53:11.682Z,13.98
2018-03-19T02:55:39.229Z,14.48
2018-03-19T02:58:06.790Z,14.48
2018-03-19T03:00:34.345Z,14.68
2018-03-19T03:03:01.903Z,15.48
2018-03-19T03:05:29.469Z,15.32
2018-03-19T03:07:57.013Z,14.63
2018-03-19T03:10:25.340Z,15.95
2018-03-19T03:12:52.889Z,14.27
2018-03-19T03:15:20.469Z,15.00
2018-03-19T03:17:48.013Z,14.93
2018-03-19T03:20:15.585Z,15.00
2018-03-19T03:22:43.144Z,16.05
2018-03-19T03:25:10.708Z,14.50
2018-03-19T03:27:38.271Z,14.70
2018-03-19T03:30:05.825Z,14.52
2018-03-19T03:32:33.409Z,14.87
2018-03-19T03:35:00.986Z,16.17
2018-03-19T03:37:29.312Z,14.43
2018-03-19T03:39:56.857Z,13.18
2018-03-19T03:42:24.422Z,14.63
2018-03-19T03:44:52.006Z,16.12
2018-03-19T03:47:19.565Z,15.02
2018-03-19T03:49:47.124Z,14.05
2018-03-19T03:52:14.672Z,15.10
2018-03-19T03:54:42.244Z,14.43
2018-03-19T03:57:09.802Z,15.13
2018-03-19T03:59:37.356Z,15.70
2018-03-19T04:02:04.898Z,16.52
2018-03-19T04:04:32.451Z,15.05
2018-03-19T04:07:00.012Z,14.50
2018-03-19T04:09:27.564Z,14.57
2018-03-19T04:11:55.102Z,14.05
2018-03-19T04:14:23.401Z,14.27
2018-03-19T04:16:50.956Z,14.70
2018-03-19T04:19:18.485Z,14.40
2018-03-19T04:21:46.808Z,13.40
2018-03-19T04:24:14.355Z,15.07
2018-03-19T04:26:41.948Z,15.15
2018-03-19T04:29:09.495Z,14.40
2018-03-19T04:31:37.101Z,14.70
2018-03-19T04:34:04.610Z,15.45
2018-03-19T04:36:32.184Z,14.52
2018-03-19T04:38:59.750Z,15.77
2018-03-19T04:41:27.320Z,15.02
2018-03-19T04:43:54.889Z,15.77
2018-03-19T04:46:22.429Z,15.15
2018-03-19T04:48:50.756Z,15.07
2018-03-19T04:51:18.322Z,14.10
2018-03-19T04:53:45.891Z,14.10
2018-03-19T04:56:13.475Z,15.73
2018-03-19T04:58:41.040Z,15.27
2018-03-19T05:01:08.592Z,13.80
2018-03-19T05:03:36.173Z,14.20
2018-03-19T05:06:04.483Z,15.35
2018-03-19T05:08:32.316Z,15.85
2018-03-19T05:10:59.867Z,14.00
2018-03-19T05:13:27.400Z,13.18
2018-03-19T05:15:54.998Z,14.23
2018-03-19T05:18:22.529Z,14.07
2018-03-19T05:20:50.079Z,15.35
2018-03-19T05:23:17.620Z,16.10
2018-03-19T05:25:45.953Z,15.77
2018-03-19T05:28:13.505Z,13.82
2018-03-19T05:30:41.245Z,15.75
2018-03-19T05:33:08.851Z,14.80
2018-03-19T05:35:36.365Z,14.73
2018-03-19T05:38:03.921Z,15.32
2018-03-19T05:40:31.459Z,14.52
2018-03-19T05:42:59.016Z,15.13
2018-03-19T05:45:27.324Z,14.15
2018-03-19T05:47:54.876Z,15.13
2018-03-19T05:50:22.408Z,15.00
2018-03-19T05:52:50.752Z,15.07
2018-03-19T05:55:18.300Z,15.30
2018-03-19T05:57:45.852Z,14.32
2018-03-19T06:00:13.416Z,15.60
2018-03-19T06:02:41.004Z,13.00
2018-03-19T06:05:08.564Z,17.80
2018-03-19T06:07:36.115Z,14.70
2018-03-19T06:10:03.673Z,14.38
2018-03-19T06:12:31.220Z,15.68
2018-03-19T06:14:58.794Z,13.40
2018-03-19T06:17:26.331Z,14.05
2018-03-19T06:19:53.896Z,13.32
2018-03-19T06:22:21.448Z,14.95
2018-03-19T06:24:48.988Z,14.40
2018-03-19T06:27:17.330Z,15.13
2018-03-19T06:29:44.873Z,14.38
2018-03-19T06:32:12.429Z,13.57
2018-03-19T06:34:39.971Z,14.55
2018-03-19T06:37:07.536Z,15.00
2018-03-19T06:39:35.104Z,13.48
2018-03-19T06:42:02.668Z,14.10
2018-03-19T06:44:30.213Z,15.38
2018-03-19T06:46:59.792Z,13.65
2018-03-19T06:49:27.337Z,14.45
2018-03-19T06:51:55.100Z,14.27
2018-03-19T06:54:23.407Z,14.70
2018-03-19T06:56:50.983Z,16.10
2018-03-19T06:59:18.534Z,15.02
2018-03-19T07:01:46.065Z,13.90
2018-03-19T07:04:14.411Z,14.90
2018-03-19T07:06:41.966Z,13.15
2018-03-19T07:09:09.551Z,14.05
2018-03-19T07:11:37.107Z,15.10
2018-03-19T07:14:04.665Z,15.40
2018-03-19T07:16:32.213Z,17.05
2018-03-19T07:18:59.777Z,14.65
2018-03-19T07:21:27.323Z,14.95
2018-03-19T07:23:54.896Z,14.07
2018-03-19T07:26:22.441Z,15.75
2018-03-19T07:28:50.009Z,15.65
2018-03-19T07:31:17.543Z,14.95
2018-03-19T07:33:45.117Z,15.30
2018-03-19T07:36:12.673Z,15.85
2018-03-19T07:38:40.213Z,16.37
2018-03-19T07:41:07.780Z,13.45
2018-03-19T07:43:35.339Z,15.15
2018-03-19T07:46:02.922Z,15.70
2018-03-19T07:48:31.036Z,15.52
2018-03-19T07:50:58.584Z,14.23
2018-03-19T07:53:26.149Z,14.70
2018-03-19T07:55:54.491Z,13.57
2018-03-19T07:58:22.128Z,14.57
2018-03-19T08:00:49.676Z,15.00
2018-03-19T08:03:17.240Z,15.23
2018-03-19T08:05:44.847Z,15.00
2018-03-19T08:08:12.397Z,13.13
2018-03-19T08:10:39.963Z,15.40
2018-03-19T08:13:07.521Z,14.68
2018-03-19T08:15:35.076Z,14.65
2018-03-19T08:18:02.649Z,13.95
2018-03-19T08:20:30.200Z,12.95
2018-03-19T08:22:57.748Z,13.68
2018-03-19T08:25:25.314Z,14.65
2018-03-19T08:27:52.850Z,14.23
2018-03-19T08:30:20.425Z,15.25
2018-03-19T08:32:47.965Z,15.38
2018-03-19T08:35:15.532Z,13.88
2018-03-19T08:37:43.073Z,15.77
2018-03-19T08:40:10.661Z,14.43
2018-03-19T08:42:38.197Z,15.88
2018-03-19T08:45:05.733Z,14.18
2018-03-19T08:47:34.046Z,14.50
2018-03-19T08:50:01.607Z,14.40
2018-03-19T08:52:29.170Z,13.90
2018-03-19T08:54:56.727Z,15.70
2018-03-19T08:57:24.281Z,14.07
2018-03-19T08:59:51.860Z,14.52
2018-03-19T09:02:19.731Z,14.18
2018-03-19T09:04:48.113Z,13.85
2018-03-19T09:07:15.712Z,14.70
2018-03-19T09:09:43.241Z,14.85
2018-03-19T09:12:10.774Z,14.82
2018-03-19T09:14:38.335Z,13.90
2018-03-19T09:17:05.880Z,13.90
2018-03-19T09:19:33.456Z,14.50
2018-03-19T09:22:01.025Z,14.35
2018-03-19T09:24:28.577Z,14.63
2018-03-19T09:26:56.152Z,14.00
2018-03-19T09:29:23.696Z,11.25
2018-03-19T09:31:51.260Z,12.85
2018-03-19T09:34:18.796Z,12.52
2018-03-19T09:36:46.352Z,13.82
2018-03-19T09:39:13.893Z,14.68
2018-03-19T09:41:42.208Z,12.48
2018-03-19T09:44:09.752Z,13.43
2018-03-19T09:46:37.325Z,13.82
2018-03-19T09:49:04.868Z,13.62
2018-03-19T09:51:32.458Z,13.98
2018-03-19T09:53:59.984Z,11.65
2018-03-19T09:56:27.529Z,13.05
2018-03-19T09:58:55.837Z,12.20
2018-03-19T10:01:23.407Z,12.98
2018-03-19T10:03:50.970Z,13.75
2018-03-19T10:06:18.535Z,13.40
2018-03-19T10:08:46.063Z,14.30
2018-03-19T10:11:13.658Z,12.65
2018-03-19T10:13:41.192Z,12.63
2018-03-19T10:16:08.725Z,12.98
2018-03-19T10:18:37.054Z,13.80
2018-03-19T10:21:04.609Z,12.68
2018-03-19T10:23:32.166Z,12.27
2018-03-19T10:25:59.715Z,12.52
2018-03-19T10:28:27.274Z,13.38
2018-03-19T10:30:54.815Z,12.37
2018-03-19T10:33:22.423Z,13.32
2018-03-19T10:35:49.943Z,12.25
2018-03-19T10:38:17.495Z,11.85
2018-03-19T10:40:45.034Z,13.38
2018-03-19T10:43:13.366Z,12.93
2018-03-19T10:45:40.893Z,14.02
2018-03-19T10:48:08.457Z,13.62
2018-03-19T10:50:36.022Z,12.20
2018-03-19T10:53:03.597Z,13.27
2018-03-19T10:55:31.162Z,13.50
2018-03-19T10:57:58.744Z,11.85
2018-03-19T11:00:26.273Z,12.48
2018-03-19T11:03:09.672Z,13.13
2018-03-19T11:05:42.871Z,12.43
2018-03-19T11:08:10.426Z,12.10
2018-03-19T11:10:37.995Z,12.90
2018-03-19T11:13:05.530Z,13.00
2018-03-19T11:15:33.089Z,13.30
2018-03-19T11:18:00.624Z,13.25
2018-03-19T11:20:28.193Z,12.88
2018-03-19T11:22:56.553Z,13.85
2018-03-19T11:25:24.090Z,15.65
2018-03-19T11:27:51.651Z,12.18
2018-03-19T11:30:19.211Z,11.55
2018-03-19T11:32:46.782Z,11.73
2018-03-19T11:35:14.333Z,14.73
2018-03-19T11:37:41.930Z,13.32
2018-03-19T11:40:10.229Z,12.35
2018-03-19T11:42:37.787Z,14.55
2018-03-19T11:45:05.331Z,13.30
2018-03-19T11:47:32.894Z,14.13
2018-03-19T11:50:00.454Z,15.10
2018-03-19T11:52:28.084Z,12.48
2018-03-19T11:54:55.635Z,15.32
2018-03-19T11:57:23.964Z,14.55
2018-03-19T11:59:51.528Z,14.35
2018-03-19T12:02:19.080Z,15.45
2018-03-19T12:04:46.616Z,14.90
2018-03-19T12:07:14.290Z,12.18
2018-03-19T12:09:41.845Z,13.10
2018-03-19T12:12:09.414Z,13.62
2018-03-19T12:14:36.958Z,12.77
2018-03-19T12:17:04.495Z,11.57
2018-03-19T12:19:32.079Z,14.23
2018-03-19T12:21:59.620Z,15.38
2018-03-19T12:24:27.944Z,13.45
2018-03-19T12:26:55.627Z,12.80
2018-03-19T12:29:23.267Z,11.88
2018-03-19T12:31:51.536Z,14.30
2018-03-19T12:34:19.085Z,14.60
2018-03-19T12:36:46.658Z,14.05
2018-03-19T12:39:14.232Z,14.20
2018-03-19T12:41:41.775Z,14.00
2018-03-19T12:44:09.339Z,15.88
2018-03-19T12:46:36.912Z,13.93
2018-03-19T12:49:04.449Z,15.07
2018-03-19T12:51:32.037Z,13.77
2018-03-19T12:53:59.560Z,13.38
2018-03-19T12:56:27.141Z,14.27
2018-03-19T12:58:54.715Z,14.18
2018-03-19T13:01:22.254Z,13.25
2018-03-19T13:03:49.822Z,14.80
2018-03-19T13:06:17.373Z,16.15
2018-03-19T13:08:44.909Z,14.43
2018-03-19T13:11:14.240Z,14.05
2018-03-19T13:13:41.783Z,14.57
2018-03-19T13:16:09.351Z,14.27
2018-03-19T13:18:36.900Z,16.40
2018-03-19T13:21:04.464Z,15.90
2018-03-19T13:23:32.074Z,14.87
2018-03-19T13:25:59.608Z,16.50
2018-03-19T13:28:27.965Z,15.63
2018-03-19T13:30:55.513Z,13.93
2018-03-19T13:33:23.071Z,12.65
2018-03-19T13:35:50.650Z,14.20
2018-03-19T13:38:19.711Z,14.77
2018-03-19T13:40:47.378Z,13.20
2018-03-19T13:43:14.937Z,14.40
2018-03-19T13:45:42.516Z,15.23
2018-03-19T13:48:10.101Z,12.93
2018-03-19T13:50:37.638Z,14.18
2018-03-19T13:53:05.224Z,14.32
2018-03-19T13:55:33.537Z,12.50
2018-03-19T13:58:01.119Z,12.73
2018-03-19T14:00:28.656Z,13.77
2018-03-19T14:02:56.211Z,15.25
2018-03-19T14:05:23.807Z,14.07
2018-03-19T14:07:51.352Z,12.65
2018-03-19T14:10:18.938Z,15.77
2018-03-19T14:12:46.512Z,14.48
2018-03-19T14:15:14.080Z,14.43
2018-03-19T14:17:42.400Z,14.80
2018-03-19T14:20:09.953Z,16.08
2018-03-19T14:22:37.480Z,15.63
2018-03-19T14:25:05.808Z,16.35
2018-03-19T14:27:33.426Z,16.35
2018-03-19T14:30:00.947Z,14.98
2018-03-19T14:32:28.491Z,16.83
2018-03-19T14:34:56.302Z,16.90
2018-03-19T14:37:23.856Z,15.20
2018-03-19T14:39:51.397Z,14.10
2018-03-19T14:42:18.936Z,15.15
2018-03-19T14:44:46.498Z,15.23
2018-03-19T14:47:14.051Z,14.85
2018-03-19T14:49:41.611Z,13.45
2018-03-19T14:52:09.149Z,14.73
2018-03-19T14:54:36.759Z,14.40
2018-03-19T14:57:04.299Z,15.10
2018-03-19T14:59:31.851Z,14.18
2018-03-19T15:01:59.402Z,13.27
2018-03-19T15:04:26.953Z,12.65
2018-03-19T15:06:54.510Z,14.27
2018-03-19T15:09:22.086Z,12.50
2018-03-19T15:11:50.433Z,13.73
2018-03-19T15:14:17.961Z,13.43
2018-03-19T15:16:45.516Z,14.18
2018-03-19T15:19:13.060Z,14.35
2018-03-19T15:21:41.393Z,14.60
2018-03-19T15:24:08.956Z,14.55
2018-03-19T15:26:36.514Z,13.95
2018-03-19T15:29:04.088Z,13.45
2018-03-19T15:31:31.628Z,14.48
2018-03-19T15:33:59.213Z,14.98
2018-03-19T15:36:26.755Z,15.30
2018-03-19T15:38:54.331Z,14.63
2018-03-19T15:41:21.864Z,14.85
2018-03-19T15:43:49.423Z,16.87
2018-03-19T15:46:16.977Z,14.23
2018-03-19T15:48:44.525Z,14.57
2018-03-19T15:51:12.141Z,14.45
2018-03-19T15:53:40.460Z,14.43
2018-03-19T15:56:08.301Z,15.02
2018-03-19T15:58:36.603Z,15.02
2018-03-19T16:01:04.161Z,16.17
2018-03-19T16:03:31.711Z,16.55
2018-03-19T16:05:59.277Z,15.20
2018-03-19T16:08:26.814Z,15.43
2018-03-19T16:10:55.144Z,16.02
2018-03-19T16:13:22.696Z,14.07
2018-03-19T16:15:50.243Z,16.65
2018-03-19T16:18:17.793Z,17.12
2018-03-19T16:20:45.334Z,14.60
2018-03-19T16:23:12.988Z,14.85
2018-03-19T16:25:41.299Z,14.87
2018-03-19T16:28:08.868Z,15.75
2018-03-19T16:30:36.426Z,14.82
2018-03-19T16:33:03.997Z,15.65
2018-03-19T16:35:31.537Z,15.23
2018-03-19T16:37:59.862Z,14.18
2018-03-19T16:40:27.400Z,15.73
2018-03-19T16:42:54.943Z,15.85
2018-03-19T16:45:23.329Z,15.73
2018-03-19T16:47:50.847Z,17.08
2018-03-19T16:50:18.420Z,16.70
2018-03-19T16:52:46.741Z,17.27
2018-03-19T16:55:14.336Z,16.83
2018-03-19T16:57:41.883Z,17.50
2018-03-19T17:00:09.453Z,17.77
2018-03-19T17:02:36.992Z,15.43
2018-03-19T17:05:04.598Z,17.10
2018-03-19T17:07:32.904Z,17.58
2018-03-19T17:10:00.473Z,17.60
2018-03-19T17:12:28.018Z,15.27
2018-03-19T17:14:55.564Z,17.17
2018-03-19T17:17:24.290Z,16.90
2018-03-19T17:19:51.860Z,17.27
2018-03-19T17:22:19.425Z,16.23
2018-03-19T17:24:46.973Z,16.48
2018-03-19T17:27:14.560Z,17.55
2018-03-19T17:29:42.101Z,15.07
2018-03-19T17:32:09.745Z,15.18
2018-03-19T17:34:37.285Z,16.70
2018-03-19T17:37:04.871Z,16.87
2018-03-19T17:39:32.426Z,14.40
2018-03-19T17:41:59.982Z,15.02
2018-03-19T17:44:28.456Z,15.70
2018-03-19T17:46:55.998Z,14.87
2018-03-19T17:49:24.341Z,14.40
2018-03-19T17:51:51.903Z,15.60
2018-03-19T17:54:19.456Z,15.18
2018-03-19T17:56:47.008Z,15.00
2018-03-19T17:59:14.576Z,16.77
2018-03-19T18:01:42.126Z,16.33
2018-03-19T18:04:10.643Z,14.63
2018-03-19T18:06:38.978Z,13.57
2018-03-19T18:09:06.627Z,13.98
2018-03-19T18:11:34.187Z,15.35
2018-03-19T18:14:01.749Z,14.18
2018-03-19T18:16:29.311Z,13.75
2018-03-19T18:18:56.866Z,15.20
2018-03-19T18:21:24.434Z,15.00
2018-03-19T18:23:52.053Z,12.15
2018-03-19T18:26:20.387Z,13.80
2018-03-19T18:28:47.940Z,13.38
2018-03-19T18:31:15.511Z,14.00
2018-03-19T18:33:43.052Z,13.23
2018-03-19T18:36:10.612Z,15.68
2018-03-19T18:38:38.164Z,13.20
2018-03-19T18:41:05.724Z,12.48
2018-03-19T18:43:33.271Z,12.30
2018-03-19T18:46:00.887Z,13.77
2018-03-19T18:48:29.270Z,12.50
2018-03-19T18:50:56.808Z,15.63
2018-03-19T18:53:24.445Z,14.98
2018-03-19T18:55:52.023Z,12.57
2018-03-19T18:58:19.618Z,14.68
2018-03-19T19:00:47.196Z,13.02
2018-03-19T19:03:15.509Z,16.45
2018-03-19T19:05:43.092Z,14.87
2018-03-19T19:08:10.633Z,14.13
2018-03-19T19:10:41.257Z,13.25
2018-03-19T19:13:08.811Z,15.02
2018-03-19T19:15:36.378Z,14.35
2018-03-19T19:18:03.920Z,13.93
2018-03-19T19:20:31.477Z,13.45
2018-03-19T19:22:59.039Z,15.00
2018-03-19T19:25:26.624Z,13.90
2018-03-19T19:27:54.176Z,13.70
2018-03-19T19:30:21.797Z,13.50
2018-03-19T19:32:50.116Z,12.57
2018-03-19T19:35:17.696Z,12.68
2018-03-19T19:37:45.232Z,13.10
2018-03-19T19:40:12.899Z,12.37
2018-03-19T19:42:40.465Z,14.27
2018-03-19T19:45:08.010Z,13.27
2018-03-19T19:47:35.575Z,14.90
2018-03-19T19:50:03.141Z,12.55
2018-03-19T19:52:30.722Z,13.00
2018-03-19T19:54:58.275Z,13.65
2018-03-19T19:57:25.858Z,13.52
2018-03-19T19:59:53.574Z,12.52
2018-03-19T20:02:21.128Z,13.23
2018-03-19T20:04:48.707Z,12.37
2018-03-19T20:07:16.282Z,13.02
2018-03-19T20:09:43.848Z,12.88
2018-03-19T20:12:11.417Z,13.48
2018-03-19T20:14:39.025Z,12.93
2018-03-19T20:17:06.601Z,13.77
2018-03-19T20:19:34.141Z,12.37
2018-03-19T20:22:01.715Z,13.27
2018-03-19T20:24:29.260Z,11.45
2018-03-19T20:26:56.862Z,12.35
2018-03-19T20:29:24.397Z,10.77
2018-03-19T20:31:51.982Z,13.05
2018-03-19T20:34:19.541Z,12.18
2018-03-19T20:36:47.101Z,11.68
2018-03-19T20:39:14.991Z,11.48
2018-03-19T20:41:44.087Z,13.15
2018-03-19T20:44:11.656Z,11.05
2018-03-19T20:46:39.256Z,12.02
2018-03-19T20:49:06.832Z,11.80
2018-03-19T20:51:35.157Z,11.75
2018-03-19T20:54:02.722Z,12.13
2018-03-19T20:56:30.304Z,9.77
2018-03-19T20:58:57.855Z,11.12
2018-03-19T21:01:25.428Z,10.05
2018-03-19T21:03:52.984Z,10.70
2018-03-19T21:06:20.546Z,10.65
2018-03-19T21:08:48.220Z,9.20
2018-03-19T21:11:15.793Z,10.25
2018-03-19T21:13:44.135Z,11.43
2018-03-19T21:16:11.756Z,10.30
2018-03-19T21:18:40.066Z,10.15
2018-03-19T21:21:07.616Z,11.20
2018-03-19T21:23:35.183Z,9.02
2018-03-19T21:26:02.736Z,9.30
2018-03-19T21:28:30.271Z,9.50
2018-03-19T21:30:57.828Z,9.60
2018-03-19T21:33:25.372Z,8.93
2018-03-19T21:35:53.718Z,9.90
2018-03-19T21:38:21.260Z,11.10
2018-03-19T21:40:48.840Z,10.50
2018-03-19T21:43:16.394Z,9.05
2018-03-19T21:45:43.969Z,8.80
2018-03-19T21:48:11.500Z,10.63
2018-03-19T21:50:39.033Z,9.35
2018-03-19T21:53:06.600Z,9.90
2018-03-19T21:55:34.176Z,11.07
2018-03-19T21:58:01.722Z,10.20
2018-03-19T22:00:29.281Z,10.07
2018-03-19T22:02:56.853Z,11.77
2018-03-19T22:05:24.423Z,12.68
2018-03-19T22:07:51.988Z,10.05
2018-03-19T22:10:19.552Z,9.93
2018-03-19T22:12:47.120Z,14.10
2018-03-19T22:15:14.704Z,12.13
2018-03-19T22:17:43.008Z,12.50
2018-03-19T22:20:10.587Z,11.68
2018-03-19T22:22:38.145Z,13.75
2018-03-19T22:25:05.701Z,10.05
2018-03-19T22:27:33.247Z,11.45
2018-03-19T22:30:00.924Z,11.52
2018-03-19T22:32:28.464Z,10.75
2018-03-19T22:34:56.024Z,11.40
2018-03-19T22:37:23.603Z,11.30
2018-03-19T22:39:51.160Z,12.30
2018-03-19T22:42:18.741Z,10.93
2018-03-19T22:44:46.294Z,11.45
2018-03-19T22:47:13.860Z,11.15
2018-03-19T22:49:42.318Z,11.90
2018-03-19T22:52:09.882Z,11.18
2018-03-19T22:54:37.456Z,12.15
2018-03-19T22:57:05.001Z,11.68
2018-03-19T22:59:32.565Z,11.25
2018-03-19T23:02:00.112Z,11.15
2018-03-19T23:04:39.444Z,10.55
2018-03-19T23:07:06.981Z,12.98
2018-03-19T23:09:35.322Z,12.43
2018-03-19T23:12:02.857Z,11.90
2018-03-19T23:14:31.972Z,11.57
2018-03-19T23:16:59.515Z,12.07
2018-03-19T23:19:27.094Z,13.38
2018-03-19T23:21:54.645Z,12.07
2018-03-19T23:24:22.999Z,12.73
2018-03-19T23:26:50.536Z,12.68
2018-03-19T23:29:18.078Z,11.75
2018-03-19T23:31:45.638Z,12.55
2018-03-19T23:34:13.177Z,12.50
2018-03-19T23:36:40.728Z,13.05
2018-03-19T23:39:09.044Z,12.82
2018-03-19T23:41:36.597Z,12.73
2018-03-19T23:44:04.136Z,11.00
2018-03-19T23:46:31.694Z,12.13
2018-03-19T23:49:00.000Z,10.80
2018-03-19T23:51:27.572Z,12.05
2018-03-19T23:53:55.114Z,12.98
2018-03-19T23:56:22.688Z,11.65
2018-03-19T23:58:50.280Z,12.75
